sensor_id;sensor_type;location;lat;lon;timestamp;P1;durP1;ratioP1;P2;durP2;ratioP2
34673;SDS011;20879;55.668;37.858;2022-10-16T00:00:42;10.05;;;5.40;;
34673;SDS011;20879;55.668;37.858;2022-10-16T00:03:11;9.02;;;5.32;;
34673;SDS011;20879;55.668;37.858;2022-10-16T00:05:41;9.80;;;5.57;;
34673;SDS011;20879;55.668;37.858;2022-10-16T00:08:11;10.43;;;5.63;;
34673;SDS011;20879;55.668;37.858;2022-10-16T00:10:41;9.98;;;5.50;;
34673;SDS011;20879;55.668;37.858;2022-10-16T00:13:12;10.55;;;4.93;;
34673;SDS011;20879;55.668;37.858;2022-10-16T00:15:43;9.05;;;5.13;;
34673;SDS011;20879;55.668;37.858;2022-10-16T00:18:12;10.38;;;5.10;;
34673;SDS011;20879;55.668;37.858;2022-10-16T00:20:42;8.98;;;5.53;;
34673;SDS011;20879;55.668;37.858;2022-10-16T00:23:31;11.00;;;6.60;;
34673;SDS011;20879;55.668;37.858;2022-10-16T00:26:01;8.60;;;6.10;;
34673;SDS011;20879;55.668;37.858;2022-10-16T00:28:34;12.07;;;6.50;;
34673;SDS011;20879;55.668;37.858;2022-10-16T00:31:04;16.45;;;7.07;;
34673;SDS011;20879;55.668;37.858;2022-10-16T00:33:34;14.00;;;6.88;;
34673;SDS011;20879;55.668;37.858;2022-10-16T00:36:05;12.55;;;6.75;;
34673;SDS011;20879;55.668;37.858;2022-10-16T00:38:35;11.75;;;6.30;;
34673;SDS011;20879;55.668;37.858;2022-10-16T00:41:12;9.43;;;5.32;;
34673;SDS011;20879;55.668;37.858;2022-10-16T00:43:46;10.48;;;5.40;;
34673;SDS011;20879;55.668;37.858;2022-10-16T00:46:17;11.32;;;5.80;;
34673;SDS011;20879;55.668;37.858;2022-10-16T00:48:50;8.20;;;5.38;;
34673;SDS011;20879;55.668;37.858;2022-10-16T00:51:30;9.63;;;5.68;;
34673;SDS011;20879;55.668;37.858;2022-10-16T00:54:01;9.73;;;5.75;;
34673;SDS011;20879;55.668;37.858;2022-10-16T00:56:32;13.73;;;6.93;;
34673;SDS011;20879;55.668;37.858;2022-10-16T00:59:04;11.68;;;5.75;;
34673;SDS011;20879;55.668;37.858;2022-10-16T01:01:39;11.98;;;5.72;;
34673;SDS011;20879;55.668;37.858;2022-10-16T01:04:13;10.98;;;5.40;;
34673;SDS011;20879;55.668;37.858;2022-10-16T01:06:43;10.60;;;5.57;;
34673;SDS011;20879;55.668;37.858;2022-10-16T01:09:26;10.15;;;5.15;;
34673;SDS011;20879;55.668;37.858;2022-10-16T01:12:05;9.63;;;5.38;;
34673;SDS011;20879;55.668;37.858;2022-10-16T01:14:40;11.75;;;5.60;;
34673;SDS011;20879;55.668;37.858;2022-10-16T01:17:17;10.80;;;5.68;;
34673;SDS011;20879;55.668;37.858;2022-10-16T01:19:55;10.15;;;5.10;;
34673;SDS011;20879;55.668;37.858;2022-10-16T01:22:33;12.40;;;5.83;;
34673;SDS011;20879;55.668;37.858;2022-10-16T01:25:14;11.93;;;5.85;;
34673;SDS011;20879;55.668;37.858;2022-10-16T01:27:53;9.43;;;5.80;;
34673;SDS011;20879;55.668;37.858;2022-10-16T01:30:30;12.48;;;5.70;;
34673;SDS011;20879;55.668;37.858;2022-10-16T01:33:02;9.60;;;5.93;;
34673;SDS011;20879;55.668;37.858;2022-10-16T01:35:38;8.90;;;5.70;;
34673;SDS011;20879;55.668;37.858;2022-10-16T01:38:12;15.18;;;6.30;;
34673;SDS011;20879;55.668;37.858;2022-10-16T01:40:45;12.45;;;6.15;;
34673;SDS011;20879;55.668;37.858;2022-10-16T01:43:20;11.68;;;6.43;;
34673;SDS011;20879;55.668;37.858;2022-10-16T01:45:59;11.32;;;5.88;;
34673;SDS011;20879;55.668;37.858;2022-10-16T01:48:30;11.43;;;6.20;;
34673;SDS011;20879;55.668;37.858;2022-10-16T01:51:06;10.98;;;6.30;;
34673;SDS011;20879;55.668;37.858;2022-10-16T01:53:39;13.68;;;6.28;;
34673;SDS011;20879;55.668;37.858;2022-10-16T01:56:10;8.77;;;4.80;;
34673;SDS011;20879;55.668;37.858;2022-10-16T01:58:45;11.73;;;5.53;;
34673;SDS011;20879;55.668;37.858;2022-10-16T02:01:24;10.48;;;5.65;;
34673;SDS011;20879;55.668;37.858;2022-10-16T02:03:57;12.95;;;5.93;;
34673;SDS011;20879;55.668;37.858;2022-10-16T02:06:33;9.82;;;6.13;;
34673;SDS011;20879;55.668;37.858;2022-10-16T02:09:03;13.52;;;6.53;;
34673;SDS011;20879;55.668;37.858;2022-10-16T02:11:37;14.43;;;5.88;;
34673;SDS011;20879;55.668;37.858;2022-10-16T02:14:10;13.90;;;6.10;;
34673;SDS011;20879;55.668;37.858;2022-10-16T02:16:41;11.65;;;5.70;;
34673;SDS011;20879;55.668;37.858;2022-10-16T02:19:11;10.63;;;5.60;;
34673;SDS011;20879;55.668;37.858;2022-10-16T02:21:43;11.38;;;5.72;;
34673;SDS011;20879;55.668;37.858;2022-10-16T02:24:17;11.75;;;5.65;;
34673;SDS011;20879;55.668;37.858;2022-10-16T02:26:56;12.10;;;5.70;;
34673;SDS011;20879;55.668;37.858;2022-10-16T02:29:33;9.68;;;5.30;;
34673;SDS011;20879;55.668;37.858;2022-10-16T02:32:10;11.27;;;5.95;;
34673;SDS011;20879;55.668;37.858;2022-10-16T02:34:44;14.20;;;5.57;;
34673;SDS011;20879;55.668;37.858;2022-10-16T02:37:19;14.77;;;5.65;;
34673;SDS011;20879;55.668;37.858;2022-10-16T02:39:49;10.20;;;5.55;;
34673;SDS011;20879;55.668;37.858;2022-10-16T02:42:18;8.63;;;5.30;;
34673;SDS011;20879;55.668;37.858;2022-10-16T02:44:50;11.52;;;6.53;;
34673;SDS011;20879;55.668;37.858;2022-10-16T02:47:19;9.32;;;5.40;;
34673;SDS011;20879;55.668;37.858;2022-10-16T02:49:48;13.88;;;5.97;;
34673;SDS011;20879;55.668;37.858;2022-10-16T02:52:17;12.23;;;5.75;;
34673;SDS011;20879;55.668;37.858;2022-10-16T02:54:46;14.02;;;5.72;;
34673;SDS011;20879;55.668;37.858;2022-10-16T02:57:16;15.68;;;5.85;;
34673;SDS011;20879;55.668;37.858;2022-10-16T02:59:45;15.27;;;5.47;;
34673;SDS011;20879;55.668;37.858;2022-10-16T03:02:27;12.20;;;5.57;;
34673;SDS011;20879;55.668;37.858;2022-10-16T03:07:32;13.40;;;5.72;;
34673;SDS011;20879;55.668;37.858;2022-10-16T03:10:01;12.07;;;5.40;;
34673;SDS011;20879;55.668;37.858;2022-10-16T03:12:31;9.65;;;5.75;;
34673;SDS011;20879;55.668;37.858;2022-10-16T03:15:05;11.20;;;5.53;;
34673;SDS011;20879;55.668;37.858;2022-10-16T03:17:38;10.82;;;5.75;;
34673;SDS011;20879;55.668;37.858;2022-10-16T03:20:07;10.98;;;5.70;;
34673;SDS011;20879;55.668;37.858;2022-10-16T03:22:37;13.57;;;5.75;;
34673;SDS011;20879;55.668;37.858;2022-10-16T03:25:06;14.52;;;6.07;;
34673;SDS011;20879;55.668;37.858;2022-10-16T03:27:36;12.45;;;6.32;;
34673;SDS011;20879;55.668;37.858;2022-10-16T03:30:06;12.82;;;5.75;;
34673;SDS011;20879;55.668;37.858;2022-10-16T03:32:38;11.02;;;5.80;;
34673;SDS011;20879;55.668;37.858;2022-10-16T03:35:12;13.48;;;6.00;;
34673;SDS011;20879;55.668;37.858;2022-10-16T03:37:42;9.20;;;5.70;;
34673;SDS011;20879;55.668;37.858;2022-10-16T03:40:17;11.57;;;5.35;;
34673;SDS011;20879;55.668;37.858;2022-10-16T03:42:46;12.55;;;5.80;;
34673;SDS011;20879;55.668;37.858;2022-10-16T03:45:15;9.02;;;5.53;;
34673;SDS011;20879;55.668;37.858;2022-10-16T03:47:47;15.27;;;6.18;;
34673;SDS011;20879;55.668;37.858;2022-10-16T03:50:16;10.07;;;6.07;;
34673;SDS011;20879;55.668;37.858;2022-10-16T03:52:51;14.18;;;6.13;;
34673;SDS011;20879;55.668;37.858;2022-10-16T03:55:20;9.88;;;5.75;;
34673;SDS011;20879;55.668;37.858;2022-10-16T03:57:49;13.55;;;5.80;;
34673;SDS011;20879;55.668;37.858;2022-10-16T04:00:18;10.55;;;5.43;;
34673;SDS011;20879;55.668;37.858;2022-10-16T04:02:55;9.63;;;5.30;;
34673;SDS011;20879;55.668;37.858;2022-10-16T04:05:29;12.88;;;6.10;;
34673;SDS011;20879;55.668;37.858;2022-10-16T04:07:58;11.88;;;5.90;;
34673;SDS011;20879;55.668;37.858;2022-10-16T04:10:28;12.88;;;5.80;;
34673;SDS011;20879;55.668;37.858;2022-10-16T04:13:03;13.73;;;6.25;;
34673;SDS011;20879;55.668;37.858;2022-10-16T04:15:32;12.50;;;5.65;;
34673;SDS011;20879;55.668;37.858;2022-10-16T04:18:08;11.63;;;6.20;;
34673;SDS011;20879;55.668;37.858;2022-10-16T04:20:38;13.65;;;5.75;;
34673;SDS011;20879;55.668;37.858;2022-10-16T04:23:07;11.55;;;5.68;;
34673;SDS011;20879;55.668;37.858;2022-10-16T04:25:41;12.10;;;5.75;;
34673;SDS011;20879;55.668;37.858;2022-10-16T04:28:10;15.13;;;5.85;;
34673;SDS011;20879;55.668;37.858;2022-10-16T04:30:45;13.98;;;6.00;;
34673;SDS011;20879;55.668;37.858;2022-10-16T04:33:23;12.17;;;6.80;;
34673;SDS011;20879;55.668;37.858;2022-10-16T04:35:56;13.15;;;5.90;;
34673;SDS011;20879;55.668;37.858;2022-10-16T04:38:25;11.02;;;5.53;;
34673;SDS011;20879;55.668;37.858;2022-10-16T04:40:59;10.02;;;5.53;;
34673;SDS011;20879;55.668;37.858;2022-10-16T04:43:30;13.23;;;5.93;;
34673;SDS011;20879;55.668;37.858;2022-10-16T04:45:59;11.05;;;5.30;;
34673;SDS011;20879;55.668;37.858;2022-10-16T04:48:32;10.02;;;5.18;;
34673;SDS011;20879;55.668;37.858;2022-10-16T04:51:02;11.23;;;5.10;;
34673;SDS011;20879;55.668;37.858;2022-10-16T04:53:31;11.30;;;5.35;;
34673;SDS011;20879;55.668;37.858;2022-10-16T04:56:01;10.98;;;5.35;;
34673;SDS011;20879;55.668;37.858;2022-10-16T04:58:30;12.18;;;5.65;;
34673;SDS011;20879;55.668;37.858;2022-10-16T05:00:59;10.20;;;5.30;;
34673;SDS011;20879;55.668;37.858;2022-10-16T05:03:28;11.07;;;5.75;;
34673;SDS011;20879;55.668;37.858;2022-10-16T05:06:00;13.20;;;6.07;;
34673;SDS011;20879;55.668;37.858;2022-10-16T05:08:30;10.88;;;5.82;;
34673;SDS011;20879;55.668;37.858;2022-10-16T05:11:04;11.48;;;5.90;;
34673;SDS011;20879;55.668;37.858;2022-10-16T05:13:33;12.77;;;5.30;;
34673;SDS011;20879;55.668;37.858;2022-10-16T05:16:03;12.00;;;6.30;;
34673;SDS011;20879;55.668;37.858;2022-10-16T05:18:32;11.50;;;6.20;;
34673;SDS011;20879;55.668;37.858;2022-10-16T05:21:04;12.77;;;6.45;;
34673;SDS011;20879;55.668;37.858;2022-10-16T05:23:38;12.27;;;5.93;;
34673;SDS011;20879;55.668;37.858;2022-10-16T05:26:07;12.25;;;6.72;;
34673;SDS011;20879;55.668;37.858;2022-10-16T05:28:38;13.50;;;7.00;;
34673;SDS011;20879;55.668;37.858;2022-10-16T05:31:09;12.45;;;6.63;;
34673;SDS011;20879;55.668;37.858;2022-10-16T05:33:38;13.07;;;6.70;;
34673;SDS011;20879;55.668;37.858;2022-10-16T05:36:09;12.48;;;6.60;;
34673;SDS011;20879;55.668;37.858;2022-10-16T05:38:44;17.60;;;7.55;;
34673;SDS011;20879;55.668;37.858;2022-10-16T05:41:13;13.73;;;6.38;;
34673;SDS011;20879;55.668;37.858;2022-10-16T05:43:47;13.52;;;6.65;;
34673;SDS011;20879;55.668;37.858;2022-10-16T05:46:17;11.77;;;6.40;;
34673;SDS011;20879;55.668;37.858;2022-10-16T05:48:51;13.75;;;5.72;;
34673;SDS011;20879;55.668;37.858;2022-10-16T05:51:23;11.45;;;5.82;;
34673;SDS011;20879;55.668;37.858;2022-10-16T05:53:57;12.90;;;5.65;;
34673;SDS011;20879;55.668;37.858;2022-10-16T05:56:26;10.82;;;6.18;;
34673;SDS011;20879;55.668;37.858;2022-10-16T05:59:02;15.10;;;6.32;;
34673;SDS011;20879;55.668;37.858;2022-10-16T06:01:32;10.85;;;5.78;;
34673;SDS011;20879;55.668;37.858;2022-10-16T06:04:01;13.13;;;5.95;;
34673;SDS011;20879;55.668;37.858;2022-10-16T06:06:33;13.60;;;6.60;;
34673;SDS011;20879;55.668;37.858;2022-10-16T06:09:03;15.02;;;7.95;;
34673;SDS011;20879;55.668;37.858;2022-10-16T06:11:33;15.95;;;7.97;;
34673;SDS011;20879;55.668;37.858;2022-10-16T06:14:02;16.45;;;8.13;;
34673;SDS011;20879;55.668;37.858;2022-10-16T06:16:38;11.65;;;6.38;;
34673;SDS011;20879;55.668;37.858;2022-10-16T06:19:07;14.18;;;6.95;;
34673;SDS011;20879;55.668;37.858;2022-10-16T06:21:38;14.50;;;6.28;;
34673;SDS011;20879;55.668;37.858;2022-10-16T06:24:12;15.98;;;7.55;;
34673;SDS011;20879;55.668;37.858;2022-10-16T06:26:47;15.93;;;8.07;;
34673;SDS011;20879;55.668;37.858;2022-10-16T06:29:16;16.52;;;7.55;;
34673;SDS011;20879;55.668;37.858;2022-10-16T06:31:45;16.30;;;7.28;;
34673;SDS011;20879;55.668;37.858;2022-10-16T06:34:14;12.20;;;6.30;;
34673;SDS011;20879;55.668;37.858;2022-10-16T06:36:45;12.45;;;6.63;;
34673;SDS011;20879;55.668;37.858;2022-10-16T06:39:14;16.02;;;6.53;;
34673;SDS011;20879;55.668;37.858;2022-10-16T06:41:43;17.00;;;6.72;;
34673;SDS011;20879;55.668;37.858;2022-10-16T06:44:16;11.75;;;6.63;;
34673;SDS011;20879;55.668;37.858;2022-10-16T06:46:45;15.10;;;7.07;;
34673;SDS011;20879;55.668;37.858;2022-10-16T06:49:14;18.88;;;6.35;;
34673;SDS011;20879;55.668;37.858;2022-10-16T06:51:49;17.42;;;7.25;;
34673;SDS011;20879;55.668;37.858;2022-10-16T06:54:23;11.00;;;6.53;;
34673;SDS011;20879;55.668;37.858;2022-10-16T06:56:53;14.43;;;6.30;;
34673;SDS011;20879;55.668;37.858;2022-10-16T06:59:27;13.60;;;6.60;;
34673;SDS011;20879;55.668;37.858;2022-10-16T07:01:56;12.82;;;7.55;;
34673;SDS011;20879;55.668;37.858;2022-10-16T07:04:26;13.38;;;6.05;;
34673;SDS011;20879;55.668;37.858;2022-10-16T07:06:57;11.50;;;6.40;;
34673;SDS011;20879;55.668;37.858;2022-10-16T07:09:34;13.18;;;6.20;;
34673;SDS011;20879;55.668;37.858;2022-10-16T07:12:03;14.30;;;6.90;;
34673;SDS011;20879;55.668;37.858;2022-10-16T07:14:58;12.07;;;5.57;;
34673;SDS011;20879;55.668;37.858;2022-10-16T07:17:29;15.98;;;6.10;;
34673;SDS011;20879;55.668;37.858;2022-10-16T07:19:58;15.68;;;6.07;;
34673;SDS011;20879;55.668;37.858;2022-10-16T07:22:31;11.75;;;6.18;;
34673;SDS011;20879;55.668;37.858;2022-10-16T07:25:00;17.38;;;6.95;;
34673;SDS011;20879;55.668;37.858;2022-10-16T07:27:29;13.63;;;6.25;;
34673;SDS011;20879;55.668;37.858;2022-10-16T07:29:59;19.27;;;7.22;;
34673;SDS011;20879;55.668;37.858;2022-10-16T07:32:35;22.38;;;6.45;;
34673;SDS011;20879;55.668;37.858;2022-10-16T07:35:04;12.75;;;6.65;;
34673;SDS011;20879;55.668;37.858;2022-10-16T07:37:47;14.13;;;6.50;;
34673;SDS011;20879;55.668;37.858;2022-10-16T07:40:16;17.00;;;7.07;;
34673;SDS011;20879;55.668;37.858;2022-10-16T07:42:45;16.17;;;7.00;;
34673;SDS011;20879;55.668;37.858;2022-10-16T07:45:14;14.82;;;6.88;;
34673;SDS011;20879;55.668;37.858;2022-10-16T07:47:43;21.27;;;6.97;;
34673;SDS011;20879;55.668;37.858;2022-10-16T07:50:18;13.50;;;7.00;;
34673;SDS011;20879;55.668;37.858;2022-10-16T07:52:49;14.77;;;6.75;;
34673;SDS011;20879;55.668;37.858;2022-10-16T07:55:23;14.65;;;6.85;;
34673;SDS011;20879;55.668;37.858;2022-10-16T07:57:52;12.40;;;6.63;;
34673;SDS011;20879;55.668;37.858;2022-10-16T08:00:22;15.32;;;7.15;;
34673;SDS011;20879;55.668;37.858;2022-10-16T08:02:57;13.45;;;6.70;;
34673;SDS011;20879;55.668;37.858;2022-10-16T08:05:32;16.88;;;7.07;;
34673;SDS011;20879;55.668;37.858;2022-10-16T08:08:04;28.48;;;6.97;;
34673;SDS011;20879;55.668;37.858;2022-10-16T08:10:33;15.10;;;8.18;;
34673;SDS011;20879;55.668;37.858;2022-10-16T08:13:07;13.88;;;6.35;;
34673;SDS011;20879;55.668;37.858;2022-10-16T08:15:37;13.43;;;6.13;;
34673;SDS011;20879;55.668;37.858;2022-10-16T08:18:07;17.10;;;6.18;;
34673;SDS011;20879;55.668;37.858;2022-10-16T08:20:38;14.45;;;7.05;;
34673;SDS011;20879;55.668;37.858;2022-10-16T08:23:11;16.65;;;6.63;;
34673;SDS011;20879;55.668;37.858;2022-10-16T08:25:41;16.08;;;6.38;;
34673;SDS011;20879;55.668;37.858;2022-10-16T08:28:10;12.20;;;6.30;;
34673;SDS011;20879;55.668;37.858;2022-10-16T08:30:45;14.77;;;6.53;;
34673;SDS011;20879;55.668;37.858;2022-10-16T08:33:14;13.63;;;6.70;;
34673;SDS011;20879;55.668;37.858;2022-10-16T08:35:49;17.90;;;6.90;;
34673;SDS011;20879;55.668;37.858;2022-10-16T08:38:22;16.67;;;7.10;;
34673;SDS011;20879;55.668;37.858;2022-10-16T08:40:57;14.30;;;6.38;;
34673;SDS011;20879;55.668;37.858;2022-10-16T08:43:54;15.70;;;6.60;;
34673;SDS011;20879;55.668;37.858;2022-10-16T08:46:43;15.48;;;6.57;;
34673;SDS011;20879;55.668;37.858;2022-10-16T08:49:23;13.05;;;6.22;;
34673;SDS011;20879;55.668;37.858;2022-10-16T08:51:53;13.48;;;6.38;;
34673;SDS011;20879;55.668;37.858;2022-10-16T08:54:28;14.75;;;5.75;;
34673;SDS011;20879;55.668;37.858;2022-10-16T08:57:07;10.07;;;4.20;;
34673;SDS011;20879;55.668;37.858;2022-10-16T08:59:41;9.82;;;3.83;;
34673;SDS011;20879;55.668;37.858;2022-10-16T09:02:20;10.75;;;4.53;;
34673;SDS011;20879;55.668;37.858;2022-10-16T09:07:56;9.80;;;4.80;;
34673;SDS011;20879;55.668;37.858;2022-10-16T09:10:46;9.40;;;4.45;;
34673;SDS011;20879;55.668;37.858;2022-10-16T09:13:26;12.65;;;4.95;;
34673;SDS011;20879;55.668;37.858;2022-10-16T09:15:59;8.77;;;3.80;;
34673;SDS011;20879;55.668;37.858;2022-10-16T09:18:40;10.65;;;4.03;;
34673;SDS011;20879;55.668;37.858;2022-10-16T09:21:16;6.35;;;3.60;;
34673;SDS011;20879;55.668;37.858;2022-10-16T09:23:50;9.40;;;3.80;;
34673;SDS011;20879;55.668;37.858;2022-10-16T09:26:21;6.22;;;3.42;;
34673;SDS011;20879;55.668;37.858;2022-10-16T09:28:56;6.82;;;3.60;;
34673;SDS011;20879;55.668;37.858;2022-10-16T09:31:30;7.50;;;4.05;;
34673;SDS011;20879;55.668;37.858;2022-10-16T09:34:00;14.60;;;4.82;;
34673;SDS011;20879;55.668;37.858;2022-10-16T09:36:34;11.85;;;3.55;;
34673;SDS011;20879;55.668;37.858;2022-10-16T09:39:09;6.47;;;3.58;;
34673;SDS011;20879;55.668;37.858;2022-10-16T09:41:43;10.25;;;3.83;;
34673;SDS011;20879;55.668;37.858;2022-10-16T09:44:17;7.90;;;3.47;;
34673;SDS011;20879;55.668;37.858;2022-10-16T09:47:01;7.15;;;3.30;;
34673;SDS011;20879;55.668;37.858;2022-10-16T09:49:31;6.40;;;2.97;;
34673;SDS011;20879;55.668;37.858;2022-10-16T09:52:04;11.88;;;3.10;;
34673;SDS011;20879;55.668;37.858;2022-10-16T09:54:34;9.55;;;2.67;;
34673;SDS011;20879;55.668;37.858;2022-10-16T09:57:16;7.03;;;2.72;;
34673;SDS011;20879;55.668;37.858;2022-10-16T09:59:46;6.05;;;2.60;;
34673;SDS011;20879;55.668;37.858;2022-10-16T10:02:16;9.85;;;2.80;;
34673;SDS011;20879;55.668;37.858;2022-10-16T10:04:48;12.38;;;3.15;;
34673;SDS011;20879;55.668;37.858;2022-10-16T10:07:26;6.47;;;2.80;;
34673;SDS011;20879;55.668;37.858;2022-10-16T10:10:01;4.80;;;2.65;;
34673;SDS011;20879;55.668;37.858;2022-10-16T10:12:39;8.98;;;3.08;;
34673;SDS011;20879;55.668;37.858;2022-10-16T10:15:14;5.38;;;2.72;;
34673;SDS011;20879;55.668;37.858;2022-10-16T10:17:48;5.75;;;2.97;;
34673;SDS011;20879;55.668;37.858;2022-10-16T10:20:25;8.15;;;2.80;;
34673;SDS011;20879;55.668;37.858;2022-10-16T10:23:13;8.00;;;2.72;;
34673;SDS011;20879;55.668;37.858;2022-10-16T10:25:51;5.72;;;2.42;;
34673;SDS011;20879;55.668;37.858;2022-10-16T10:31:22;4.68;;;2.55;;
34673;SDS011;20879;55.668;37.858;2022-10-16T10:33:57;4.05;;;2.85;;
34673;SDS011;20879;55.668;37.858;2022-10-16T10:36:38;7.95;;;2.72;;
34673;SDS011;20879;55.668;37.858;2022-10-16T10:39:15;4.88;;;2.60;;
34673;SDS011;20879;55.668;37.858;2022-10-16T10:42:02;5.60;;;2.70;;
34673;SDS011;20879;55.668;37.858;2022-10-16T10:44:57;6.65;;;2.63;;
34673;SDS011;20879;55.668;37.858;2022-10-16T10:47:52;7.57;;;2.90;;
34673;SDS011;20879;55.668;37.858;2022-10-16T10:50:33;5.07;;;2.72;;
34673;SDS011;20879;55.668;37.858;2022-10-16T10:53:11;5.00;;;2.70;;
34673;SDS011;20879;55.668;37.858;2022-10-16T10:58:36;4.88;;;2.50;;
34673;SDS011;20879;55.668;37.858;2022-10-16T11:01:32;6.78;;;2.58;;
34673;SDS011;20879;55.668;37.858;2022-10-16T11:04:24;9.90;;;3.00;;
34673;SDS011;20879;55.668;37.858;2022-10-16T11:07:17;6.07;;;2.80;;
34673;SDS011;20879;55.668;37.858;2022-10-16T11:09:51;6.88;;;2.38;;
34673;SDS011;20879;55.668;37.858;2022-10-16T11:12:23;6.53;;;2.80;;
34673;SDS011;20879;55.668;37.858;2022-10-16T11:14:58;4.68;;;2.60;;
34673;SDS011;20879;55.668;37.858;2022-10-16T11:17:35;7.57;;;2.72;;
34673;SDS011;20879;55.668;37.858;2022-10-16T11:20:12;6.30;;;2.53;;
34673;SDS011;20879;55.668;37.858;2022-10-16T11:22:45;5.40;;;2.70;;
34673;SDS011;20879;55.668;37.858;2022-10-16T11:25:20;3.85;;;2.47;;
34673;SDS011;20879;55.668;37.858;2022-10-16T11:27:54;5.45;;;2.80;;
34673;SDS011;20879;55.668;37.858;2022-10-16T11:30:30;4.00;;;2.63;;
34673;SDS011;20879;55.668;37.858;2022-10-16T11:33:10;8.23;;;2.55;;
34673;SDS011;20879;55.668;37.858;2022-10-16T11:35:51;3.53;;;2.45;;
34673;SDS011;20879;55.668;37.858;2022-10-16T11:38:27;5.28;;;2.70;;
34673;SDS011;20879;55.668;37.858;2022-10-16T11:41:03;6.25;;;2.63;;
34673;SDS011;20879;55.668;37.858;2022-10-16T11:43:42;4.47;;;2.35;;
34673;SDS011;20879;55.668;37.858;2022-10-16T11:46:15;7.25;;;2.53;;
34673;SDS011;20879;55.668;37.858;2022-10-16T11:48:53;5.90;;;2.63;;
34673;SDS011;20879;55.668;37.858;2022-10-16T11:51:29;9.65;;;2.85;;
34673;SDS011;20879;55.668;37.858;2022-10-16T11:54:08;5.22;;;2.67;;
34673;SDS011;20879;55.668;37.858;2022-10-16T11:56:53;8.38;;;2.70;;
34673;SDS011;20879;55.668;37.858;2022-10-16T11:59:29;7.55;;;2.67;;
34673;SDS011;20879;55.668;37.858;2022-10-16T12:02:11;5.60;;;2.58;;
34673;SDS011;20879;55.668;37.858;2022-10-16T12:05:05;4.47;;;2.47;;
34673;SDS011;20879;55.668;37.858;2022-10-16T12:07:45;6.20;;;3.05;;
34673;SDS011;20879;55.668;37.858;2022-10-16T12:10:20;7.00;;;2.67;;
34673;SDS011;20879;55.668;37.858;2022-10-16T12:12:54;4.90;;;2.50;;
34673;SDS011;20879;55.668;37.858;2022-10-16T12:15:24;4.50;;;2.65;;
34673;SDS011;20879;55.668;37.858;2022-10-16T12:18:22;6.32;;;2.58;;
34673;SDS011;20879;55.668;37.858;2022-10-16T12:20:57;5.38;;;2.85;;
34673;SDS011;20879;55.668;37.858;2022-10-16T12:23:37;6.57;;;3.10;;
34673;SDS011;20879;55.668;37.858;2022-10-16T12:26:23;4.97;;;2.88;;
34673;SDS011;20879;55.668;37.858;2022-10-16T12:29:09;6.60;;;2.63;;
34673;SDS011;20879;55.668;37.858;2022-10-16T12:31:48;5.22;;;3.08;;
34673;SDS011;20879;55.668;37.858;2022-10-16T12:34:37;6.57;;;2.60;;
34673;SDS011;20879;55.668;37.858;2022-10-16T12:37:14;4.60;;;2.67;;
34673;SDS011;20879;55.668;37.858;2022-10-16T12:39:49;5.97;;;2.83;;
34673;SDS011;20879;55.668;37.858;2022-10-16T12:42:32;7.70;;;2.78;;
34673;SDS011;20879;55.668;37.858;2022-10-16T12:48:01;6.22;;;3.38;;
34673;SDS011;20879;55.668;37.858;2022-10-16T12:56:13;6.15;;;2.75;;
34673;SDS011;20879;55.668;37.858;2022-10-16T12:58:59;4.80;;;2.65;;
34673;SDS011;20879;55.668;37.858;2022-10-16T13:01:49;8.40;;;2.70;;
34673;SDS011;20879;55.668;37.858;2022-10-16T13:04:36;5.55;;;2.85;;
34673;SDS011;20879;55.668;37.858;2022-10-16T13:07:17;4.43;;;2.95;;
34673;SDS011;20879;55.668;37.858;2022-10-16T13:10:00;6.10;;;3.33;;
34673;SDS011;20879;55.668;37.858;2022-10-16T13:12:49;5.97;;;2.90;;
34673;SDS011;20879;55.668;37.858;2022-10-16T13:15:45;4.50;;;2.92;;
34673;SDS011;20879;55.668;37.858;2022-10-16T13:18:29;4.63;;;2.78;;
34673;SDS011;20879;55.668;37.858;2022-10-16T13:21:16;6.07;;;2.88;;
34673;SDS011;20879;55.668;37.858;2022-10-16T13:23:55;5.85;;;3.10;;
34673;SDS011;20879;55.668;37.858;2022-10-16T13:26:33;5.88;;;2.53;;
34673;SDS011;20879;55.668;37.858;2022-10-16T13:29:13;3.50;;;2.47;;
34673;SDS011;20879;55.668;37.858;2022-10-16T13:31:43;4.63;;;2.90;;
34673;SDS011;20879;55.668;37.858;2022-10-16T13:34:15;4.55;;;2.72;;
34673;SDS011;20879;55.668;37.858;2022-10-16T13:36:52;7.25;;;2.80;;
34673;SDS011;20879;55.668;37.858;2022-10-16T13:39:23;6.80;;;2.78;;
34673;SDS011;20879;55.668;37.858;2022-10-16T13:42:03;5.38;;;3.03;;
34673;SDS011;20879;55.668;37.858;2022-10-16T13:44:39;7.65;;;2.97;;
34673;SDS011;20879;55.668;37.858;2022-10-16T13:47:15;5.85;;;3.17;;
34673;SDS011;20879;55.668;37.858;2022-10-16T13:49:46;5.72;;;3.33;;
34673;SDS011;20879;55.668;37.858;2022-10-16T13:52:17;5.68;;;2.92;;
34673;SDS011;20879;55.668;37.858;2022-10-16T13:54:47;11.27;;;3.53;;
34673;SDS011;20879;55.668;37.858;2022-10-16T13:57:16;6.60;;;3.38;;
34673;SDS011;20879;55.668;37.858;2022-10-16T13:59:55;5.72;;;3.20;;
34673;SDS011;20879;55.668;37.858;2022-10-16T14:02:25;8.90;;;3.83;;
34673;SDS011;20879;55.668;37.858;2022-10-16T14:05:02;8.80;;;3.45;;
34673;SDS011;20879;55.668;37.858;2022-10-16T14:07:36;7.05;;;3.63;;
34673;SDS011;20879;55.668;37.858;2022-10-16T14:10:07;9.60;;;3.90;;
34673;SDS011;20879;55.668;37.858;2022-10-16T14:12:56;10.73;;;4.28;;
34673;SDS011;20879;55.668;37.858;2022-10-16T14:15:29;11.13;;;4.53;;
34673;SDS011;20879;55.668;37.858;2022-10-16T14:18:07;10.57;;;5.38;;
34673;SDS011;20879;55.668;37.858;2022-10-16T14:20:46;12.82;;;5.22;;
34673;SDS011;20879;55.668;37.858;2022-10-16T14:23:22;11.32;;;5.10;;
34673;SDS011;20879;55.668;37.858;2022-10-16T14:26:05;16.05;;;5.88;;
34673;SDS011;20879;55.668;37.858;2022-10-16T14:28:35;15.35;;;5.47;;
34673;SDS011;20879;55.668;37.858;2022-10-16T14:31:27;17.15;;;6.57;;
34673;SDS011;20879;55.668;37.858;2022-10-16T14:34:22;14.55;;;5.70;;
34673;SDS011;20879;55.668;37.858;2022-10-16T14:36:54;16.52;;;6.38;;
34673;SDS011;20879;55.668;37.858;2022-10-16T14:39:28;13.38;;;6.65;;
34673;SDS011;20879;55.668;37.858;2022-10-16T14:41:58;12.43;;;5.82;;
34673;SDS011;20879;55.668;37.858;2022-10-16T14:44:28;12.70;;;5.65;;
34673;SDS011;20879;55.668;37.858;2022-10-16T14:47:08;12.57;;;5.30;;
34673;SDS011;20879;55.668;37.858;2022-10-16T14:49:41;13.90;;;5.47;;
34673;SDS011;20879;55.668;37.858;2022-10-16T14:52:11;14.25;;;5.68;;
34673;SDS011;20879;55.668;37.858;2022-10-16T14:54:41;15.27;;;5.85;;
34673;SDS011;20879;55.668;37.858;2022-10-16T14:57:16;15.90;;;6.80;;
34673;SDS011;20879;55.668;37.858;2022-10-16T14:59:46;19.33;;;8.37;;
34673;SDS011;20879;55.668;37.858;2022-10-16T15:02:20;19.45;;;8.05;;
34673;SDS011;20879;55.668;37.858;2022-10-16T15:05:04;23.73;;;12.70;;
34673;SDS011;20879;55.668;37.858;2022-10-16T15:07:40;20.55;;;9.05;;
34673;SDS011;20879;55.668;37.858;2022-10-16T15:10:09;16.73;;;7.85;;
34673;SDS011;20879;55.668;37.858;2022-10-16T15:12:39;16.92;;;7.25;;
34673;SDS011;20879;55.668;37.858;2022-10-16T15:15:15;17.45;;;7.07;;
34673;SDS011;20879;55.668;37.858;2022-10-16T15:17:54;18.23;;;6.95;;
34673;SDS011;20879;55.668;37.858;2022-10-16T15:20:27;15.50;;;6.75;;
34673;SDS011;20879;55.668;37.858;2022-10-16T15:23:00;18.95;;;7.15;;
34673;SDS011;20879;55.668;37.858;2022-10-16T15:28:08;15.27;;;6.05;;
34673;SDS011;20879;55.668;37.858;2022-10-16T15:30:38;11.45;;;5.68;;